createdAt,value
2022-11-17T00:02:14.202Z,98850.13
2022-11-17T00:04:47.581Z,98849.41
2022-11-17T00:07:20.414Z,98846.89
2022-11-17T00:09:53.285Z,98844.37
2022-11-17T00:12:44.116Z,98839.63
2022-11-17T00:15:18.534Z,98833.22
2022-11-17T00:17:54.045Z,98832.34
2022-11-17T00:20:44.721Z,98825.16
2022-11-17T00:23:17.548Z,98825.09
2022-11-17T00:25:50.518Z,98829.71
2022-11-17T00:28:23.221Z,98825.74
2022-11-17T00:31:34.453Z,98823.95
2022-11-17T00:34:07.587Z,98817.61
2022-11-17T00:36:50.550Z,98816.53
2022-11-17T00:39:24.683Z,98816.27
2022-11-17T00:41:56.933Z,98811.91
2022-11-17T00:44:30.287Z,98810.27
2022-11-17T00:47:03.134Z,98810.91
2022-11-17T00:49:37.724Z,98804.14
2022-11-17T00:52:12.722Z,98802.50
2022-11-17T00:54:45.580Z,98793.91
2022-11-17T00:57:18.994Z,98793.09
2022-11-17T00:59:52.664Z,98794.98
2022-11-17T01:02:25.639Z,98792.24
2022-11-17T01:04:58.523Z,98788.13
2022-11-17T01:07:31.446Z,98784.65
2022-11-17T01:10:05.167Z,98791.67
2022-11-17T01:12:38.148Z,98782.94
2022-11-17T01:15:12.206Z,98783.55
2022-11-17T01:17:45.113Z,98775.77
2022-11-17T01:20:18.235Z,98769.66
2022-11-17T01:22:52.340Z,98770.89
2022-11-17T01:25:25.250Z,98766.53
2022-11-17T01:27:58.219Z,98762.14
2022-11-17T01:30:31.699Z,98763.94
2022-11-17T01:33:04.692Z,98760.50
2022-11-17T01:35:38.151Z,98756.68
2022-11-17T01:38:11.395Z,98746.94
2022-11-17T01:40:44.466Z,98744.14
2022-11-17T01:43:17.650Z,98748.67
2022-11-17T01:45:50.916Z,98748.39
2022-11-17T01:48:24.606Z,98742.46
2022-11-17T01:50:57.378Z,98739.59
2022-11-17T01:53:31.685Z,98738.78
2022-11-17T01:56:06.305Z,98737.13
2022-11-17T01:58:47.239Z,98734.75
2022-11-17T02:01:20.240Z,98730.85
2022-11-17T02:03:53.431Z,98719.63
2022-11-17T02:06:33.538Z,98720.99
2022-11-17T02:09:06.547Z,98721.48
2022-11-17T02:11:39.819Z,98716.36
2022-11-17T02:14:13.804Z,98712.11
2022-11-17T02:16:46.992Z,98713.55
2022-11-17T02:19:20.169Z,98712.73
2022-11-17T02:22:38.293Z,98699.75
2022-11-17T02:25:36.496Z,98706.31
2022-11-17T02:28:16.840Z,98710.14
2022-11-17T02:31:07.143Z,98704.81
2022-11-17T02:34:06.215Z,98704.73
2022-11-17T02:36:49.359Z,98697.02
2022-11-17T02:39:29.213Z,98689.64
2022-11-17T02:42:11.072Z,98682.66
2022-11-17T02:45:03.046Z,98678.70
2022-11-17T02:47:37.461Z,98679.57
2022-11-17T02:50:12.847Z,98672.20
2022-11-17T02:52:45.668Z,98669.18
2022-11-17T02:55:18.328Z,98664.05
2022-11-17T02:57:52.321Z,98667.21
2022-11-17T03:00:25.594Z,98665.11
2022-11-17T03:03:37.210Z,98665.17
2022-11-17T03:06:32.587Z,98672.55
2022-11-17T03:09:22.576Z,98670.08
2022-11-17T03:12:12.108Z,98661.13
2022-11-17T03:15:09.067Z,98655.58
2022-11-17T03:18:22.502Z,98655.58
2022-11-17T03:21:00.668Z,98652.91
2022-11-17T03:23:44.082Z,98652.32
2022-11-17T03:26:22.034Z,98651.56
2022-11-17T03:28:57.036Z,98643.00
2022-11-17T03:31:30.575Z,98645.46
2022-11-17T03:34:06.747Z,98650.34
2022-11-17T03:36:43.613Z,98631.67
2022-11-17T03:39:27.196Z,98632.23
2022-11-17T03:42:10.100Z,98619.83
2022-11-17T03:44:46.734Z,98619.16
2022-11-17T03:47:22.284Z,98624.77
2022-11-17T03:50:11.166Z,98619.83
2022-11-17T03:52:44.983Z,98618.53
2022-11-17T03:55:18.247Z,98617.30
2022-11-17T03:58:04.880Z,98624.42
2022-11-17T04:00:39.181Z,98615.11
2022-11-17T04:03:12.161Z,98613.00
2022-11-17T04:05:46.975Z,98608.25
2022-11-17T04:08:22.212Z,98613.20
2022-11-17T04:11:12.772Z,98608.06
2022-11-17T04:14:04.858Z,98607.45
2022-11-17T04:16:37.809Z,98613.00
2022-11-17T04:19:11.268Z,98610.40
2022-11-17T04:21:44.808Z,98607.80
2022-11-17T04:24:18.666Z,98608.33
2022-11-17T04:27:08.832Z,98601.38
2022-11-17T04:29:41.629Z,98601.89
2022-11-17T04:32:15.088Z,98598.70
2022-11-17T04:34:48.541Z,98599.52
2022-11-17T04:37:21.316Z,98599.52
2022-11-17T04:39:54.620Z,98603.97
2022-11-17T04:42:27.367Z,98599.00
2022-11-17T04:45:00.275Z,98598.09
2022-11-17T04:47:33.721Z,98602.12
2022-11-17T04:50:08.082Z,98590.98
2022-11-17T04:52:41.225Z,98598.62
2022-11-17T04:55:15.171Z,98604.44
2022-11-17T04:57:48.151Z,98596.34
2022-11-17T05:00:21.434Z,98595.11
2022-11-17T05:02:54.563Z,98593.16
2022-11-17T05:05:28.019Z,98596.73
2022-11-17T05:08:01.661Z,98592.13
2022-11-17T05:10:52.807Z,98593.22
2022-11-17T05:13:26.511Z,98592.92
2022-11-17T05:16:18.035Z,98599.13
2022-11-17T05:18:51.143Z,98591.52
2022-11-17T05:21:24.383Z,98590.41
2022-11-17T05:23:57.934Z,98589.73
2022-11-17T05:26:34.303Z,98584.77
2022-11-17T05:29:10.005Z,98581.63
2022-11-17T05:31:43.367Z,98588.45
2022-11-17T05:34:21.150Z,98580.83
2022-11-17T05:36:54.660Z,98581.95
2022-11-17T05:39:27.743Z,98584.84
2022-11-17T05:42:00.855Z,98590.59
2022-11-17T05:44:34.262Z,98582.42
2022-11-17T05:47:07.374Z,98584.78
2022-11-17T05:49:41.699Z,98580.23
2022-11-17T05:52:14.790Z,98583.47
2022-11-17T05:54:48.028Z,98584.44
2022-11-17T05:57:26.004Z,98582.77
2022-11-17T06:00:04.799Z,98576.83
2022-11-17T06:02:46.473Z,98582.52
2022-11-17T06:05:20.542Z,98589.69
2022-11-17T06:07:56.247Z,98582.44
2022-11-17T06:10:29.812Z,98585.59
2022-11-17T06:13:03.799Z,98586.13
2022-11-17T06:15:37.530Z,98582.55
2022-11-17T06:18:13.423Z,98573.92
2022-11-17T06:20:49.348Z,98577.89
2022-11-17T06:23:24.351Z,98575.77
2022-11-17T06:25:57.262Z,98571.13
2022-11-17T06:28:31.492Z,98567.81
2022-11-17T06:31:04.745Z,98564.58
2022-11-17T06:33:39.437Z,98554.02
2022-11-17T06:36:11.928Z,98549.05
2022-11-17T06:38:44.986Z,98547.52
2022-11-17T06:41:18.044Z,98549.92
2022-11-17T06:43:50.931Z,98553.13
2022-11-17T06:46:23.708Z,98549.33
2022-11-17T06:48:57.646Z,98545.69
2022-11-17T06:51:30.578Z,98544.20
2022-11-17T06:54:05.649Z,98549.59
2022-11-17T06:56:38.969Z,98549.55
2022-11-17T06:59:12.031Z,98546.30
2022-11-17T07:01:45.522Z,98541.18
2022-11-17T07:04:18.675Z,98546.55
2022-11-17T07:06:52.357Z,98538.34
2022-11-17T07:09:26.543Z,98537.52
2022-11-17T07:12:00.087Z,98539.75
2022-11-17T07:14:33.892Z,98541.59
2022-11-17T07:17:08.096Z,98542.98
2022-11-17T07:19:41.048Z,98547.39
2022-11-17T07:22:14.334Z,98548.30
2022-11-17T07:24:47.582Z,98549.17
2022-11-17T07:27:20.710Z,98544.44
2022-11-17T07:29:53.651Z,98537.48
2022-11-17T07:32:27.268Z,98540.48
2022-11-17T07:35:02.303Z,98549.12
2022-11-17T07:37:36.176Z,98550.48
2022-11-17T07:40:10.990Z,98553.57
2022-11-17T07:42:46.673Z,98550.00
2022-11-17T07:45:19.564Z,98559.08
2022-11-17T07:47:59.783Z,98562.88
2022-11-17T07:50:33.508Z,98557.03
2022-11-17T07:53:06.458Z,98559.54
2022-11-17T07:55:39.825Z,98560.73
2022-11-17T07:58:12.856Z,98562.81
2022-11-17T08:00:46.101Z,98558.85
2022-11-17T08:03:19.287Z,98566.63
2022-11-17T08:05:53.819Z,98571.81
2022-11-17T08:08:26.668Z,98564.34
2022-11-17T08:11:06.356Z,98576.02
2022-11-17T08:13:41.528Z,98569.50
2022-11-17T08:16:15.255Z,98566.50
2022-11-17T08:18:52.323Z,98566.13
2022-11-17T08:21:23.981Z,98553.09
2022-11-17T08:23:57.156Z,98560.91
2022-11-17T08:26:30.175Z,98563.47
2022-11-17T08:29:02.980Z,98562.11
2022-11-17T08:31:36.618Z,98563.31
2022-11-17T08:34:09.643Z,98564.41
2022-11-17T08:36:42.803Z,98560.02
2022-11-17T08:39:16.141Z,98557.36
2022-11-17T08:41:49.212Z,98560.02
2022-11-17T08:44:22.252Z,98551.42
2022-11-17T08:46:55.392Z,98553.55
2022-11-17T08:49:28.193Z,98552.30
2022-11-17T08:52:01.304Z,98553.60
2022-11-17T08:54:35.107Z,98550.59
2022-11-17T08:57:08.105Z,98547.52
2022-11-17T08:59:40.983Z,98558.16
2022-11-17T09:02:15.206Z,98565.28
2022-11-17T09:04:48.704Z,98566.80
2022-11-17T09:07:22.396Z,98569.19
2022-11-17T09:09:55.536Z,98572.94
2022-11-17T09:12:28.992Z,98560.13
2022-11-17T09:15:02.227Z,98562.83
2022-11-17T09:17:36.230Z,98566.14
2022-11-17T09:20:09.388Z,98566.88
2022-11-17T09:22:43.033Z,98571.62
2022-11-17T09:25:17.201Z,98561.23
2022-11-17T09:27:52.739Z,98566.20
2022-11-17T09:30:26.191Z,98560.48
2022-11-17T09:33:00.496Z,98558.88
2022-11-17T09:35:33.490Z,98545.44
2022-11-17T09:38:06.474Z,98551.49
2022-11-17T09:40:41.695Z,98554.23
2022-11-17T09:43:21.958Z,98552.20
2022-11-17T09:46:01.903Z,98560.70
2022-11-17T09:49:15.050Z,98566.81
2022-11-17T09:51:49.768Z,98578.70
2022-11-17T09:54:34.305Z,98570.91
2022-11-17T09:57:08.861Z,98566.94
2022-11-17T09:59:41.911Z,98567.27
2022-11-17T10:02:14.768Z,98566.27
2022-11-17T10:04:48.673Z,98557.98
2022-11-17T10:07:22.477Z,98565.03
2022-11-17T10:09:57.503Z,98569.75
2022-11-17T10:12:39.030Z,98566.97
2022-11-17T10:15:37.338Z,98573.84
2022-11-17T10:18:19.181Z,98582.00
2022-11-17T10:20:53.805Z,98588.93
2022-11-17T10:23:30.002Z,98591.47
2022-11-17T10:26:10.334Z,98592.98
2022-11-17T10:28:43.795Z,98592.40
2022-11-17T10:31:20.079Z,98594.03
2022-11-17T10:33:53.503Z,98594.09
2022-11-17T10:36:31.793Z,98586.02
2022-11-17T10:39:04.946Z,98591.34
2022-11-17T10:41:42.218Z,98591.86
2022-11-17T10:44:30.296Z,98589.32
2022-11-17T10:47:05.280Z,98588.14
2022-11-17T10:49:40.157Z,98589.08
2022-11-17T10:52:20.133Z,98593.05
2022-11-17T10:54:53.566Z,98590.44
2022-11-17T10:57:28.276Z,98590.50
2022-11-17T11:00:01.414Z,98598.85
2022-11-17T11:02:41.656Z,98601.81
2022-11-17T11:05:21.489Z,98603.81
2022-11-17T11:08:18.043Z,98606.47
2022-11-17T11:10:54.006Z,98602.27
2022-11-17T11:13:47.358Z,98602.39
2022-11-17T11:16:20.530Z,98598.55
2022-11-17T11:18:54.842Z,98602.45
2022-11-17T11:21:56.196Z,98602.52
2022-11-17T11:24:40.265Z,98598.22
2022-11-17T11:27:32.793Z,98600.88
2022-11-17T11:30:13.070Z,98603.55
2022-11-17T11:33:14.798Z,98604.55
2022-11-17T11:36:20.815Z,98599.91
2022-11-17T11:39:16.466Z,98604.84
2022-11-17T11:42:26.385Z,98600.69
2022-11-17T11:45:16.015Z,98602.17
2022-11-17T11:48:08.538Z,98604.08
2022-11-17T11:51:22.141Z,98597.66
2022-11-17T11:54:20.609Z,98601.61
2022-11-17T11:56:53.919Z,98598.68
2022-11-17T11:59:45.033Z,98592.67
2022-11-17T12:02:28.698Z,98591.10
2022-11-17T12:05:36.661Z,98593.28
2022-11-17T12:08:20.859Z,98591.61
2022-11-17T12:11:10.086Z,98597.78
2022-11-17T12:13:48.462Z,98598.72
2022-11-17T12:16:31.156Z,98607.83
2022-11-17T12:19:06.677Z,98601.32
2022-11-17T12:21:39.548Z,98597.95
2022-11-17T12:24:22.270Z,98604.04
2022-11-17T12:26:55.302Z,98603.11
2022-11-17T12:29:32.058Z,98599.59
2022-11-17T12:32:05.149Z,98596.93
2022-11-17T12:34:39.674Z,98593.88
2022-11-17T12:37:26.926Z,98590.84
2022-11-17T12:40:10.575Z,98587.88
2022-11-17T12:42:48.218Z,98587.11
2022-11-17T12:45:21.391Z,98587.68
2022-11-17T12:48:18.302Z,98591.19
2022-11-17T12:50:39.206Z,98583.72
2022-11-17T12:53:19.898Z,98587.11
2022-11-17T12:56:01.226Z,98600.02
2022-11-17T12:58:54.311Z,98599.96
2022-11-17T13:02:05.902Z,98605.48
2022-11-17T13:04:49.685Z,98608.95
2022-11-17T13:07:27.805Z,98608.47
2022-11-17T13:10:03.192Z,98614.53
2022-11-17T13:12:37.523Z,98606.36
2022-11-17T13:15:16.950Z,98601.15
2022-11-17T13:17:52.554Z,98606.84
2022-11-17T13:20:31.803Z,98604.23
2022-11-17T13:23:09.280Z,98605.42
2022-11-17T13:25:42.352Z,98598.25
2022-11-17T13:28:33.008Z,98599.32
2022-11-17T13:31:06.153Z,98598.20
2022-11-17T13:33:40.824Z,98591.47
2022-11-17T13:36:23.378Z,98593.41
2022-11-17T13:38:59.234Z,98589.41
2022-11-17T13:41:37.788Z,98595.01
2022-11-17T13:44:20.011Z,98598.03
2022-11-17T13:46:52.941Z,98604.05
2022-11-17T13:49:38.685Z,98601.94
2022-11-17T13:52:39.348Z,98597.55
2022-11-17T13:55:13.269Z,98597.97
2022-11-17T13:57:59.645Z,98601.33
2022-11-17T14:00:33.896Z,98596.86
2022-11-17T14:03:09.806Z,98599.73
2022-11-17T14:05:48.177Z,98605.17
2022-11-17T14:08:30.656Z,98598.97
2022-11-17T14:11:15.636Z,98597.00
2022-11-17T14:13:54.276Z,98600.84
2022-11-17T14:16:32.244Z,98599.15
2022-11-17T14:19:22.269Z,98601.33
2022-11-17T14:22:05.408Z,98597.06
2022-11-17T14:24:39.005Z,98594.52
2022-11-17T14:27:35.230Z,98590.74
2022-11-17T14:30:11.165Z,98581.83
2022-11-17T14:32:44.658Z,98582.43
2022-11-17T14:37:51.218Z,98585.60
2022-11-17T14:40:24.222Z,98583.48
2022-11-17T14:42:57.323Z,98579.64
2022-11-17T14:45:31.148Z,98578.89
2022-11-17T14:48:06.868Z,98570.72
2022-11-17T14:50:40.616Z,98568.98
2022-11-17T14:53:13.468Z,98557.77
2022-11-17T14:55:47.972Z,98553.13
2022-11-17T14:58:21.160Z,98554.61
2022-11-17T15:00:54.509Z,98551.61
2022-11-17T15:03:28.611Z,98552.97
2022-11-17T15:06:03.385Z,98552.97
2022-11-17T15:08:36.769Z,98549.41
2022-11-17T15:11:09.603Z,98546.34
2022-11-17T15:13:42.858Z,98543.38
2022-11-17T15:16:16.043Z,98539.70
2022-11-17T15:18:50.362Z,98539.88
2022-11-17T15:21:23.376Z,98530.77
2022-11-17T15:23:56.334Z,98535.55
2022-11-17T15:26:29.219Z,98535.09
2022-11-17T15:29:02.260Z,98535.05
2022-11-17T15:31:35.640Z,98532.44
2022-11-17T15:34:10.124Z,98525.98
2022-11-17T15:36:42.310Z,98523.33
2022-11-17T15:39:15.508Z,98517.22
2022-11-17T15:41:51.043Z,98514.67
2022-11-17T15:44:24.840Z,98507.34
2022-11-17T15:46:57.887Z,98506.05
2022-11-17T15:49:30.754Z,98501.27
2022-11-17T15:52:03.808Z,98496.81
2022-11-17T15:54:37.462Z,98493.79
2022-11-17T15:57:11.079Z,98495.89
2022-11-17T15:59:44.481Z,98494.05
2022-11-17T16:02:17.736Z,98496.91
2022-11-17T16:04:50.957Z,98493.34
2022-11-17T16:07:24.438Z,98495.48
2022-11-17T16:09:57.604Z,98485.33
2022-11-17T16:12:30.635Z,98484.03
2022-11-17T16:15:05.506Z,98490.53
2022-11-17T16:17:38.721Z,98497.80
2022-11-17T16:20:13.337Z,98506.25
2022-11-17T16:22:46.634Z,98503.31
2022-11-17T16:25:19.387Z,98481.26
2022-11-17T16:27:52.409Z,98477.36
2022-11-17T16:30:34.221Z,98472.09
2022-11-17T16:33:04.894Z,98476.81
2022-11-17T16:35:38.942Z,98461.52
2022-11-17T16:38:18.567Z,98456.25
2022-11-17T16:40:51.627Z,98440.70
2022-11-17T16:43:24.745Z,98428.69
2022-11-17T16:45:58.150Z,98418.81
2022-11-17T16:48:34.793Z,98418.02
2022-11-17T16:51:09.478Z,98411.12
2022-11-17T16:53:42.512Z,98415.10
2022-11-17T16:56:15.723Z,98411.06
2022-11-17T16:58:50.707Z,98411.34
2022-11-17T17:01:26.755Z,98412.03
2022-11-17T17:04:06.776Z,98395.88
2022-11-17T17:06:46.310Z,98393.23
2022-11-17T17:09:24.709Z,98383.70
2022-11-17T17:11:54.179Z,98386.78
2022-11-17T17:14:28.304Z,98391.92
2022-11-17T17:17:01.896Z,98382.34
2022-11-17T17:19:34.858Z,98377.63
2022-11-17T17:22:08.130Z,98365.54
2022-11-17T17:24:41.912Z,98353.50
2022-11-17T17:27:14.867Z,98361.75
2022-11-17T17:29:48.476Z,98358.70
2022-11-17T17:32:21.383Z,98370.02
2022-11-17T17:34:54.947Z,98388.31
2022-11-17T17:37:27.910Z,98367.78
2022-11-17T17:40:01.214Z,98340.91
2022-11-17T17:42:34.505Z,98341.39
2022-11-17T17:45:08.382Z,98328.44
2022-11-17T17:47:42.341Z,98331.55
2022-11-17T17:50:15.444Z,98312.16
2022-11-17T17:52:48.840Z,98301.80
2022-11-17T17:55:21.815Z,98304.02
2022-11-17T17:57:55.045Z,98305.70
2022-11-17T18:00:28.068Z,98291.77
2022-11-17T18:03:02.770Z,98294.05
2022-11-17T18:05:39.957Z,98278.40
2022-11-17T18:08:13.394Z,98278.00
2022-11-17T18:10:47.122Z,98267.17
2022-11-17T18:13:21.059Z,98261.55
2022-11-17T18:15:54.065Z,98257.20
2022-11-17T18:18:27.059Z,98256.72
2022-11-17T18:21:09.112Z,98247.14
2022-11-17T18:23:43.222Z,98242.73
2022-11-17T18:26:20.591Z,98236.47
2022-11-17T18:28:57.640Z,98237.32
2022-11-17T18:31:35.013Z,98229.86
2022-11-17T18:34:19.089Z,98225.14
2022-11-17T18:36:56.728Z,98213.86
2022-11-17T18:39:31.811Z,98214.31
2022-11-17T18:42:05.095Z,98200.92
2022-11-17T18:44:39.482Z,98201.36
2022-11-17T18:47:14.293Z,98177.09
2022-11-17T18:49:47.678Z,98179.27
2022-11-17T18:52:20.790Z,98174.01
2022-11-17T18:54:54.091Z,98155.91
2022-11-17T18:57:28.002Z,98151.19
2022-11-17T19:00:00.718Z,98125.71
2022-11-17T19:02:33.988Z,98124.91
2022-11-17T19:05:07.695Z,98126.64
2022-11-17T19:07:40.761Z,98114.50
2022-11-17T19:10:13.868Z,98090.13
2022-11-17T19:12:46.881Z,98102.70
2022-11-17T19:15:20.063Z,98097.50
2022-11-17T19:17:53.222Z,98094.85
2022-11-17T19:20:27.425Z,98088.40
2022-11-17T19:23:00.458Z,98075.45
2022-11-17T19:25:36.042Z,98062.39
2022-11-17T19:28:12.716Z,98052.42
2022-11-17T19:30:46.202Z,98044.52
2022-11-17T19:33:19.839Z,98034.17
2022-11-17T19:35:52.643Z,98030.70
2022-11-17T19:38:25.684Z,98023.77
2022-11-17T19:41:05.478Z,98013.75
2022-11-17T19:43:44.876Z,98009.38
2022-11-17T19:46:17.032Z,97995.50
2022-11-17T19:48:50.463Z,97982.45
2022-11-17T19:51:29.474Z,97977.65
2022-11-17T19:54:08.378Z,97968.11
2022-11-17T19:56:41.373Z,97948.61
2022-11-17T19:59:16.667Z,97942.98
2022-11-17T20:01:49.066Z,97933.88
2022-11-17T20:04:22.642Z,97922.17
2022-11-17T20:06:55.785Z,97912.25
2022-11-17T20:09:28.834Z,97905.28
2022-11-17T20:12:01.809Z,97899.65
2022-11-17T20:14:36.332Z,97885.73
2022-11-17T20:17:09.832Z,97879.66
2022-11-17T20:19:43.742Z,97870.66
2022-11-17T20:22:17.930Z,97863.38
2022-11-17T20:24:50.035Z,97858.31
2022-11-17T20:27:23.169Z,97848.52
2022-11-17T20:29:56.094Z,97833.87
2022-11-17T20:32:35.187Z,97831.52
2022-11-17T20:35:08.792Z,97824.71
2022-11-17T20:37:42.086Z,97819.67
2022-11-17T20:40:15.508Z,97813.77
2022-11-17T20:42:48.345Z,97803.52
2022-11-17T20:45:21.263Z,97796.30
2022-11-17T20:47:54.546Z,97790.03
2022-11-17T20:50:27.363Z,97777.25
2022-11-17T20:53:00.291Z,97767.86
2022-11-17T20:55:33.199Z,97762.80
2022-11-17T20:58:06.286Z,97757.41
2022-11-17T21:00:39.749Z,97755.55
2022-11-17T21:03:12.764Z,97755.90
2022-11-17T21:05:46.032Z,97751.89
2022-11-17T21:08:19.678Z,97750.35
2022-11-17T21:11:00.694Z,97741.45
2022-11-17T21:13:36.110Z,97737.36
2022-11-17T21:16:16.964Z,97721.58
2022-11-17T21:18:50.747Z,97727.43
2022-11-17T21:21:23.859Z,97718.00
2022-11-17T21:23:57.543Z,97706.03
2022-11-17T21:26:30.793Z,97701.84
2022-11-17T21:29:17.233Z,97698.03
2022-11-17T21:31:40.030Z,97692.91
2022-11-17T21:34:19.278Z,97689.94
2022-11-17T21:36:52.152Z,97692.19
2022-11-17T21:39:25.171Z,97677.06
2022-11-17T21:41:58.439Z,97676.67
2022-11-17T21:44:31.715Z,97663.20
2022-11-17T21:47:04.923Z,97655.41
2022-11-17T21:49:37.833Z,97658.51
2022-11-17T21:52:11.731Z,97648.09
2022-11-17T21:54:44.644Z,97641.98
2022-11-17T21:57:18.270Z,97645.95
2022-11-17T21:59:51.216Z,97636.41
2022-11-17T22:02:24.118Z,97628.61
2022-11-17T22:04:57.317Z,97623.80
2022-11-17T22:07:30.953Z,97622.11
2022-11-17T22:10:04.536Z,97620.83
2022-11-17T22:12:37.577Z,97619.09
2022-11-17T22:15:11.897Z,97619.98
2022-11-17T22:17:45.184Z,97611.33
2022-11-17T22:20:18.279Z,97612.63
2022-11-17T22:22:53.626Z,97603.52
2022-11-17T22:28:02.255Z,97590.94
2022-11-17T22:30:35.539Z,97591.41
2022-11-17T22:33:08.699Z,97585.75
2022-11-17T22:35:42.172Z,97584.03
2022-11-17T22:38:16.340Z,97572.70
2022-11-17T22:40:49.222Z,97574.91
2022-11-17T22:43:22.176Z,97584.08
2022-11-17T22:45:54.936Z,97573.19
2022-11-17T22:48:28.359Z,97581.50
2022-11-17T22:51:01.836Z,97571.48
2022-11-17T22:53:35.537Z,97570.19
2022-11-17T22:56:10.338Z,97568.03
2022-11-17T22:58:46.684Z,97560.66
2022-11-17T23:01:17.803Z,97562.83
2022-11-17T23:03:50.828Z,97570.69
2022-11-17T23:06:24.543Z,97568.94
2022-11-17T23:08:59.756Z,97582.04
2022-11-17T23:11:37.450Z,97578.58
2022-11-17T23:14:09.167Z,97578.59
2022-11-17T23:16:43.224Z,97573.35
2022-11-17T23:19:16.678Z,97582.48
2022-11-17T23:21:50.201Z,97595.53
2022-11-17T23:24:23.269Z,97597.23
2022-11-17T23:26:56.058Z,97601.52
2022-11-17T23:29:30.410Z,97604.03
2022-11-17T23:32:03.359Z,97600.02
2022-11-17T23:34:37.475Z,97608.17
2022-11-17T23:37:10.401Z,97614.62
2022-11-17T23:39:43.529Z,97619.19
2022-11-17T23:42:16.347Z,97626.69
2022-11-17T23:44:49.056Z,97638.98
2022-11-17T23:47:21.802Z,97638.72
2022-11-17T23:49:54.660Z,97637.96
2022-11-17T23:52:27.672Z,97645.67
2022-11-17T23:55:00.566Z,97656.84
2022-11-17T23:57:33.406Z,97656.62
